Time;durP1;ratioP1;P1;durP2;ratioP2;P2;SDS_P1;SDS_P2;PMS_P1;PMS_P2;Temp;Humidity;BMP_temperature;BMP_pressure;BME280_temperature;BME280_humidity;BME280_pressure;Samples;Min_cycle;Max_cycle;Signal;HPM_P1;HPM_P2
2023/08/30 00:00:02;;;;;;;;;;;;;;;;;;2062249;28;20301;-73
2023/08/30 00:01:23;;;;;;;;;;;;;;;;;;2055799;28;19922;-73
2023/08/30 00:02:44;;;;;;;;;;;;;;;;;;2056012;28;19934;-73
2023/08/30 00:04:04;;;;;;;;;;;;;;;;;;2069452;28;19913;-73
2023/08/30 00:05:27;;;;;;;;;;;;;;;;;;2063613;28;19914;-73
2023/08/30 00:06:48;;;;;;;;;;;;;;;;;;2057294;28;19918;-73
2023/08/30 00:08:09;;;;;;;;;;;;;;;;;;2057698;28;19918;-73
2023/08/30 00:09:29;;;;;;;;;;;;;;;;;;2061383;28;19914;-73
2023/08/30 00:10:51;;;;;;;;;;;;;;;;;;2054516;28;19918;-73
2023/08/30 00:12:11;;;;;;;;;;;;;;;;;;2054481;28;19961;-73
2023/08/30 00:13:32;;;;;;;;;;;;;;;;;;2060689;28;20370;-73
2023/08/30 00:14:53;;;;;;;;;;;;;;;;;;2062091;28;19921;-73
2023/08/30 00:16:16;;;;;;;;;;;;;;;;;;2072733;28;19914;-73
2023/08/30 00:17:37;;;;;;;;;;;;;;;;;;2059817;28;19973;-72
2023/08/30 00:18:57;;;;;;;;;;;;;;;;;;2062696;28;19910;-73
2023/08/30 00:20:18;;;;;;;;;;;;;;;;;;2060313;28;20296;-73
2023/08/30 00:21:39;;;;;;;;;;;;;;;;;;2056528;28;19910;-73
2023/08/30 00:23:00;;;;;;;;;;;;;;;;;;2068884;28;19910;-73
2023/08/30 00:24:20;;;;;;;;;;;;;;;;;;2066614;28;19910;-73
2023/08/30 00:25:41;;;;;;;;;;;;;;;;;;2060182;28;20369;-73
2023/08/30 00:27:02;;;;;;;;;;;;;;;;;;2062579;28;19938;-74
2023/08/30 00:28:22;;;;;;;;;;;;;;;;;;2059248;28;19918;-74
2023/08/30 00:29:43;;;;;;;;;;;;;;;;;;2064977;28;20285;-74
2023/08/30 00:31:04;;;;;;;;;;;;;;;;;;2058667;28;19910;-74
2023/08/30 00:32:25;;;;;;;;;;;;;;;;;;2057357;28;20034;-74
2023/08/30 00:33:46;;;;;;;;;;;;;;;;;;2057435;28;19933;-74
2023/08/30 00:35:06;;;;;;;;;;;;;;;;;;2060414;28;19930;-73
2023/08/30 00:36:27;;;;;;;;;;;;;;;;;;2068325;28;19933;-74
2023/08/30 00:37:48;;;;;;;;;;;;;;;;;;2070408;28;20384;-74
2023/08/30 00:39:09;;;;;;;;;;;;;;;;;;2071275;28;19929;-74
2023/08/30 00:40:29;;;;;;;;;;;;;;;;;;2063340;28;19922;-74
2023/08/30 00:41:50;;;;;;;;;;;;;;;;;;2069109;28;19968;-74
2023/08/30 00:43:11;;;;;;;;;;;;;;;;;;2063873;28;19914;-74
2023/08/30 00:44:32;;;;;;;;;;;;;;;;;;2059164;28;19922;-74
2023/08/30 00:45:52;;;;;;;;;;;;;;;;;;2069260;28;19952;-74
2023/08/30 00:47:13;;;;;;;;;;;;;;;;;;2064217;28;19917;-74
2023/08/30 00:48:34;;;;;;;;;;;;;;;;;;2068161;28;19929;-74
2023/08/30 00:49:54;;;;;;;;;;;;;;;;;;2061526;28;19913;-74
2023/08/30 00:51:15;;;;;;;;;;;;;;;;;;2061704;28;21940;-74
2023/08/30 00:52:36;;;;;;;;;;;;;;;;;;2069169;28;19913;-74
2023/08/30 00:53:57;;;;;;;;;;;;;;;;;;2071725;28;20296;-73
2023/08/30 00:55:17;;;;;;;;;;;;;;;;;;2070481;28;19992;-74
2023/08/30 00:56:38;;;;;;;;;;;;;;;;;;2069521;28;19921;-74
2023/08/30 00:57:59;;;;;;;;;;;;;;;;;;2062009;28;19914;-74
2023/08/30 00:59:19;;;;;;;;;;;;;;;;;;2068953;28;20063;-75
2023/08/30 01:00:40;;;;;;;;;;;;;;;;;;2069207;28;19913;-74
2023/08/30 01:02:01;;;;;;;;;;;;;;;;;;2073824;28;19913;-74
2023/08/30 01:03:22;;;;;;;;;;;;;;;;;;2061330;28;20618;-75
2023/08/30 01:04:43;;;;;;;;;;;;;;;;;;2069516;28;19918;-74
2023/08/30 01:06:03;;;;;;;;;;;;;;;;;;2061372;28;19926;-74
2023/08/30 01:07:24;;;;;;;;;;;;;;;;;;2060980;28;20348;-74
2023/08/30 01:08:45;;;;;;;;;;;;;;;;;;2060412;28;19918;-74
2023/08/30 01:10:05;;;;;;;;;;;;;;;;;;2063245;28;20317;-73
2023/08/30 01:11:26;;;;;;;;;;;;;;;;;;2060227;28;19956;-74
2023/08/30 01:12:47;;;;;;;;;;;;;;;;;;2063430;28;20344;-74
2023/08/30 01:14:08;;;;;;;;;;;;;;;;;;2070124;28;19913;-74
2023/08/30 01:15:29;;;;;;;;;;;;;;;;;;2064231;28;19982;-74
2023/08/30 01:16:49;;;;;;;;;;;;;;;;;;2067439;28;19922;-74
2023/08/30 01:18:10;;;;;;;;;;;;;;;;;;2066837;28;19928;-74
2023/08/30 01:19:31;;;;;;;;;;;;;;;;;;2056839;28;19981;-74
2023/08/30 01:20:51;;;;;;;;;;;;;;;;;;2061982;28;19917;-74
2023/08/30 01:22:12;;;;;;;;;;;;;;;;;;2064506;28;19917;-74
2023/08/30 01:23:33;;;;;;;;;;;;;;;;;;2072041;28;19921;-74
2023/08/30 01:24:53;;;;;;;;;;;;;;;;;;2076709;28;19909;-74
2023/08/30 01:26:14;;;;;;;;;;;;;;;;;;2064932;28;19928;-73
2023/08/30 01:27:36;;;;;;;;;;;;;;;;;;2071713;28;19968;-74
2023/08/30 01:28:57;;;;;;;;;;;;;;;;;;2071916;28;20127;-74
2023/08/30 01:30:17;;;;;;;;;;;;;;;;;;2072710;28;19918;-74
2023/08/30 01:31:38;;;;;;;;;;;;;;;;;;2064817;28;19925;-74
2023/08/30 01:32:59;;;;;;;;;;;;;;;;;;2065104;28;19931;-73
2023/08/30 01:34:19;;;;;;;;;;;;;;;;;;2063819;28;20354;-74
2023/08/30 01:35:41;;;;;;;;;;;;;;;;;;2073448;28;19921;-73
2023/08/30 01:37:01;;;;;;;;;;;;;;;;;;2068002;28;20585;-73
2023/08/30 01:38:22;;;;;;;;;;;;;;;;;;2070761;28;19936;-73
2023/08/30 01:39:43;;;;;;;;;;;;;;;;;;2071416;28;19921;-72
2023/08/30 01:41:03;;;;;;;;;;;;;;;;;;2071851;28;20340;-73
2023/08/30 01:42:24;;;;;;;;;;;;;;;;;;2070489;28;19920;-73
2023/08/30 01:43:45;;;;;;;;;;;;;;;;;;2069633;28;20435;-73
2023/08/30 01:45:07;;;;;;;;;;;;;;;;;;2062314;28;19922;-74
2023/08/30 01:46:28;;;;;;;;;;;;;;;;;;2060230;28;20024;-73
2023/08/30 01:47:49;;;;;;;;;;;;;;;;;;2069072;28;20321;-73
2023/08/30 01:49:10;;;;;;;;;;;;;;;;;;2065279;28;20270;-72
2023/08/30 01:50:30;;;;;;;;;;;;;;;;;;2072025;28;19913;-73
2023/08/30 01:51:51;;;;;;;;;;;;;;;;;;2070099;28;19929;-73
2023/08/30 01:53:12;;;;;;;;;;;;;;;;;;2061599;28;20242;-73
2023/08/30 01:54:33;;;;;;;;;;;;;;;;;;2069972;28;19921;-73
2023/08/30 01:55:53;;;;;;;;;;;;;;;;;;2070653;28;19918;-73
2023/08/30 01:57:14;;;;;;;;;;;;;;;;;;2070222;28;19921;-74
2023/08/30 01:58:35;;;;;;;;;;;;;;;;;;2070862;28;19921;-72
2023/08/30 01:59:55;;;;;;;;;;;;;;;;;;2069341;28;20353;-73
2023/08/30 02:01:16;;;;;;;;;;;;;;;;;;2071385;28;19914;-73
2023/08/30 02:02:37;;;;;;;;;;;;;;;;;;2066745;28;19932;-73
2023/08/30 02:04:00;;;;;;;;;;;;;;;;;;2067867;28;19917;-72
2023/08/30 02:05:21;;;;;;;;;;;;;;;;;;2061846;28;19994;-73
2023/08/30 02:06:41;;;;;;;;;;;;;;;;;;2066880;28;19949;-73
2023/08/30 02:08:02;;;;;;;;;;;;;;;;;;2069694;28;19932;-72
2023/08/30 02:09:23;;;;;;;;;;;;;;;;;;2073814;28;19921;-73
2023/08/30 02:10:43;;;;;;;;;;;;;;;;;;2071108;28;20296;-74
2023/08/30 02:12:05;;;;;;;;;;;;;;;;;;2071650;28;19926;-73
2023/08/30 02:13:26;;;;;;;;;;;;;;;;;;2064679;28;19914;-72
2023/08/30 02:14:47;;;;;;;;;;;;;;;;;;2068825;28;19925;-72
2023/08/30 02:16:07;;;;;;;;;;;;;;;;;;2071102;28;19915;-72
2023/08/30 02:17:28;;;;;;;;;;;;;;;;;;2074501;28;19926;-73
2023/08/30 02:18:49;;;;;;;;;;;;;;;;;;2070086;28;20295;-73
2023/08/30 02:20:09;;;;;;;;;;;;;;;;;;2071955;28;21226;-72
2023/08/30 02:21:30;;;;;;;;;;;;;;;;;;2070789;28;19989;-72
2023/08/30 02:22:51;;;;;;;;;;;;;;;;;;2069161;28;19940;-73
2023/08/30 02:24:11;;;;;;;;;;;;;;;;;;2066280;28;19918;-73
2023/08/30 02:25:32;;;;;;;;;;;;;;;;;;2067785;28;19918;-73
2023/08/30 02:26:53;;;;;;;;;;;;;;;;;;2069339;28;19918;-73
2023/08/30 02:28:13;;;;;;;;;;;;;;;;;;2067291;28;20373;-74
2023/08/30 02:29:34;;;;;;;;;;;;;;;;;;2071681;28;19964;-73
2023/08/30 02:30:55;;;;;;;;;;;;;;;;;;2063654;28;19914;-74
2023/08/30 02:32:20;;;;;;;;;;;;;;;;;;2059431;28;19972;-72
2023/08/30 02:33:41;;;;;;;;;;;;;;;;;;2069619;28;19921;-73
2023/08/30 02:35:02;;;;;;;;;;;;;;;;;;2062284;28;19921;-73
2023/08/30 02:36:22;;;;;;;;;;;;;;;;;;2068916;28;20369;-72
2023/08/30 02:37:43;;;;;;;;;;;;;;;;;;2068167;28;19925;-73
2023/08/30 02:39:04;;;;;;;;;;;;;;;;;;2062197;28;20008;-72
2023/08/30 02:40:24;;;;;;;;;;;;;;;;;;2070599;28;19956;-73
2023/08/30 02:41:45;;;;;;;;;;;;;;;;;;2071734;28;19967;-73
2023/08/30 02:43:06;;;;;;;;;;;;;;;;;;2061086;28;19963;-73
2023/08/30 02:44:27;;;;;;;;;;;;;;;;;;2069496;28;19913;-73
2023/08/30 02:45:47;;;;;;;;;;;;;;;;;;2076003;28;19913;-71
2023/08/30 02:47:08;;;;;;;;;;;;;;;;;;2071172;28;19921;-73
2023/08/30 02:48:29;;;;;;;;;;;;;;;;;;2061914;28;20431;-73
2023/08/30 02:49:49;;;;;;;;;;;;;;;;;;2064979;28;19914;-74
2023/08/30 02:51:10;;;;;;;;;;;;;;;;;;2068837;28;19917;-72
2023/08/30 02:52:31;;;;;;;;;;;;;;;;;;2062265;28;19922;-73
2023/08/30 02:53:51;;;;;;;;;;;;;;;;;;2060286;28;20473;-72
2023/08/30 02:55:12;;;;;;;;;;;;;;;;;;2068023;28;20689;-72
2023/08/30 02:56:33;;;;;;;;;;;;;;;;;;2068334;28;19979;-72
2023/08/30 02:57:53;;;;;;;;;;;;;;;;;;2070756;28;19929;-72
2023/08/30 02:59:14;;;;;;;;;;;;;;;;;;2070235;28;19918;-72
2023/08/30 03:00:35;;;;;;;;;;;;;;;;;;2062802;28;20368;-73
2023/08/30 03:01:56;;;;;;;;;;;;;;;;;;2064753;28;19918;-73
2023/08/30 03:03:17;;;;;;;;;;;;;;;;;;2068582;28;19914;-73
2023/08/30 03:04:38;;;;;;;;;;;;;;;;;;2069688;28;20226;-73
2023/08/30 03:05:59;;;;;;;;;;;;;;;;;;2061310;28;19914;-72
2023/08/30 03:07:19;;;;;;;;;;;;;;;;;;2069351;28;19956;-72
2023/08/30 03:08:40;;;;;;;;;;;;;;;;;;2071695;28;19914;-73
2023/08/30 03:10:01;;;;;;;;;;;;;;;;;;2077128;28;20576;-73
2023/08/30 03:11:22;;;;;;;;;;;;;;;;;;2070560;28;19914;-73
2023/08/30 03:12:42;;;;;;;;;;;;;;;;;;2072395;28;19963;-72
2023/08/30 03:14:03;;;;;;;;;;;;;;;;;;2065197;28;20321;-72
2023/08/30 03:15:24;;;;;;;;;;;;;;;;;;2066914;28;19948;-73
2023/08/30 03:16:46;;;;;;;;;;;;;;;;;;2075612;28;20388;-72
2023/08/30 03:18:07;;;;;;;;;;;;;;;;;;2057902;28;19964;-73
2023/08/30 03:19:28;;;;;;;;;;;;;;;;;;2064392;28;19914;-73
2023/08/30 03:20:48;;;;;;;;;;;;;;;;;;2066179;28;19910;-73
2023/08/30 03:22:09;;;;;;;;;;;;;;;;;;2065844;28;20361;-72
2023/08/30 03:23:31;;;;;;;;;;;;;;;;;;2057064;28;19910;-73
2023/08/30 03:24:52;;;;;;;;;;;;;;;;;;2056712;28;19950;-73
2023/08/30 03:26:12;;;;;;;;;;;;;;;;;;2062651;28;19935;-72
2023/08/30 03:27:33;;;;;;;;;;;;;;;;;;2057328;28;20318;-72
2023/08/30 03:28:54;;;;;;;;;;;;;;;;;;2067515;28;20300;-73
2023/08/30 03:30:15;;;;;;;;;;;;;;;;;;2064872;28;20251;-74
2023/08/30 03:31:35;;;;;;;;;;;;;;;;;;2070603;28;19932;-73
2023/08/30 03:32:56;;;;;;;;;;;;;;;;;;2073329;28;19913;-73
2023/08/30 03:34:17;;;;;;;;;;;;;;;;;;2072439;28;19909;-73
2023/08/30 03:35:37;;;;;;;;;;;;;;;;;;2074138;28;20368;-73
2023/08/30 03:36:58;;;;;;;;;;;;;;;;;;2067238;28;19918;-74
2023/08/30 03:38:19;;;;;;;;;;;;;;;;;;2070299;28;19913;-73
2023/08/30 03:39:39;;;;;;;;;;;;;;;;;;2065514;28;19969;-74
2023/08/30 03:41:00;;;;;;;;;;;;;;;;;;2067695;28;19913;-73
2023/08/30 03:42:21;;;;;;;;;;;;;;;;;;2071565;28;20427;-74
2023/08/30 03:43:41;;;;;;;;;;;;;;;;;;2062904;28;19975;-74
2023/08/30 03:45:03;;;;;;;;;;;;;;;;;;2063436;28;20345;-73
2023/08/30 03:46:23;;;;;;;;;;;;;;;;;;2066759;28;19963;-74
2023/08/30 03:47:44;;;;;;;;;;;;;;;;;;2053006;28;20017;-73
2023/08/30 03:49:05;;;;;;;;;;;;;;;;;;2054189;28;19918;-74
2023/08/30 03:50:25;;;;;;;;;;;;;;;;;;2061830;28;19960;-74
2023/08/30 03:51:46;;;;;;;;;;;;;;;;;;2050573;28;19915;-73
2023/08/30 03:53:07;;;;;;;;;;;;;;;;;;2059057;28;19914;-74
2023/08/30 03:54:27;;;;;;;;;;;;;;;;;;2053865;28;19918;-74
2023/08/30 03:55:48;;;;;;;;;;;;;;;;;;2059608;28;19921;-74
2023/08/30 03:57:09;;;;;;;;;;;;;;;;;;2056655;28;20305;-75
2023/08/30 03:58:30;;;;;;;;;;;;;;;;;;2062255;28;19914;-75
2023/08/30 03:59:50;;;;;;;;;;;;;;;;;;2062192;28;19922;-75
2023/08/30 04:01:11;;;;;;;;;;;;;;;;;;2065384;28;19965;-75
2023/08/30 04:02:32;;;;;;;;;;;;;;;;;;2061542;28;19914;-75
2023/08/30 04:03:52;;;;;;;;;;;;;;;;;;2062119;28;19918;-75
2023/08/30 04:05:13;;;;;;;;;;;;;;;;;;2061270;28;19944;-75
2023/08/30 04:06:34;;;;;;;;;;;;;;;;;;2066331;28;20241;-75
2023/08/30 04:07:54;;;;;;;;;;;;;;;;;;2070627;28;19968;-75
2023/08/30 04:09:15;;;;;;;;;;;;;;;;;;2068340;28;21443;-74
2023/08/30 04:10:36;;;;;;;;;;;;;;;;;;2071725;28;19913;-75
2023/08/30 04:11:58;;;;;;;;;;;;;;;;;;2062887;28;19981;-75
2023/08/30 04:13:18;;;;;;;;;;;;;;;;;;2067975;28;19975;-74
2023/08/30 04:14:39;;;;;;;;;;;;;;;;;;2060701;28;19968;-75
2023/08/30 04:16:00;;;;;;;;;;;;;;;;;;2069022;28;19918;-75
2023/08/30 04:17:20;;;;;;;;;;;;;;;;;;2071247;28;19945;-74
2023/08/30 04:18:41;;;;;;;;;;;;;;;;;;2067920;28;19925;-75
2023/08/30 04:20:02;;;;;;;;;;;;;;;;;;2071530;28;19933;-75
2023/08/30 04:21:22;;;;;;;;;;;;;;;;;;2068915;28;19918;-75
2023/08/30 04:22:43;;;;;;;;;;;;;;;;;;2071986;28;20277;-75
2023/08/30 04:24:04;;;;;;;;;;;;;;;;;;2071291;28;20395;-76
2023/08/30 04:25:25;;;;;;;;;;;;;;;;;;2063056;28;19914;-75
2023/08/30 04:26:49;;;;;;;;;;;;;;;;;;2067452;28;19921;-75
2023/08/30 04:28:10;;;;;;;;;;;;;;;;;;2067698;28;19926;-75
2023/08/30 04:29:31;;;;;;;;;;;;;;;;;;2067783;28;20392;-75
2023/08/30 04:30:51;;;;;;;;;;;;;;;;;;2072756;28;19921;-75
2023/08/30 04:32:12;;;;;;;;;;;;;;;;;;2070172;28;20007;-75
2023/08/30 04:33:33;;;;;;;;;;;;;;;;;;2068494;28;20419;-75
2023/08/30 04:34:53;;;;;;;;;;;;;;;;;;2068835;28;19918;-75
2023/08/30 04:36:14;;;;;;;;;;;;;;;;;;2060309;28;19943;-75
2023/08/30 04:37:35;;;;;;;;;;;;;;;;;;2067941;28;19929;-75
2023/08/30 04:38:55;;;;;;;;;;;;;;;;;;2069558;28;19918;-76
2023/08/30 04:40:16;;;;;;;;;;;;;;;;;;2070312;28;19917;-75
2023/08/30 04:41:37;;;;;;;;;;;;;;;;;;2068595;28;20252;-75
2023/08/30 04:42:58;;;;;;;;;;;;;;;;;;2068016;28;20250;-76
2023/08/30 04:44:24;;;;;;;;;;;;;;;;;;2062878;28;19964;-75
2023/08/30 04:45:44;;;;;;;;;;;;;;;;;;2068729;28;19917;-76
2023/08/30 04:47:05;;;;;;;;;;;;;;;;;;2062078;28;19965;-75
2023/08/30 04:48:26;;;;;;;;;;;;;;;;;;2068494;28;19913;-75
2023/08/30 04:49:46;;;;;;;;;;;;;;;;;;2070882;28;19960;-75
2023/08/30 04:51:07;;;;;;;;;;;;;;;;;;2072343;28;19910;-74
2023/08/30 04:52:28;;;;;;;;;;;;;;;;;;2062101;28;20084;-76
2023/08/30 04:53:52;;;;;;;;;;;;;;;;;;2064414;28;20408;-76
2023/08/30 04:55:12;;;;;;;;;;;;;;;;;;2069567;28;20280;-75
2023/08/30 04:56:33;;;;;;;;;;;;;;;;;;2062380;28;19918;-75
2023/08/30 04:57:54;;;;;;;;;;;;;;;;;;2058451;28;19925;-74
2023/08/30 04:59:14;;;;;;;;;;;;;;;;;;2064732;28;19936;-75
2023/08/30 05:00:36;;;;;;;;;;;;;;;;;;2074307;28;19971;-75
2023/08/30 05:01:56;;;;;;;;;;;;;;;;;;2072314;28;19910;-75
2023/08/30 05:03:17;;;;;;;;;;;;;;;;;;2062177;28;19921;-75
2023/08/30 05:04:38;;;;;;;;;;;;;;;;;;2064060;28;20054;-75
2023/08/30 05:05:59;;;;;;;;;;;;;;;;;;2068092;28;19959;-75
2023/08/30 05:07:19;;;;;;;;;;;;;;;;;;2068193;28;19925;-75
2023/08/30 05:08:40;;;;;;;;;;;;;;;;;;2064192;28;19913;-75
2023/08/30 05:10:01;;;;;;;;;;;;;;;;;;2066294;28;19917;-75
2023/08/30 05:11:21;;;;;;;;;;;;;;;;;;2068476;28;19917;-75
2023/08/30 05:12:47;;;;;;;;;;;;;;;;;;2062974;28;20028;-75
2023/08/30 05:14:12;;;;;;;;;;;;;;;;;;2070637;28;19909;-75
2023/08/30 05:15:33;;;;;;;;;;;;;;;;;;2071892;28;20377;-76
2023/08/30 05:16:54;;;;;;;;;;;;;;;;;;2060843;28;20416;-75
2023/08/30 05:18:15;;;;;;;;;;;;;;;;;;2068838;28;19925;-75
2023/08/30 05:19:35;;;;;;;;;;;;;;;;;;2064157;28;19910;-76
2023/08/30 05:20:56;;;;;;;;;;;;;;;;;;2077347;28;19916;-76
2023/08/30 05:22:17;;;;;;;;;;;;;;;;;;2072997;28;19921;-75
2023/08/30 05:23:37;;;;;;;;;;;;;;;;;;2070344;28;19909;-75
2023/08/30 05:24:58;;;;;;;;;;;;;;;;;;2066571;28;19910;-75
2023/08/30 05:26:19;;;;;;;;;;;;;;;;;;2078252;28;19909;-76
2023/08/30 05:27:40;;;;;;;;;;;;;;;;;;2079630;28;19948;-75
2023/08/30 05:29:00;;;;;;;;;;;;;;;;;;2072245;28;19909;-74
2023/08/30 05:30:21;;;;;;;;;;;;;;;;;;2067241;28;19964;-74
2023/08/30 05:31:42;;;;;;;;;;;;;;;;;;2077685;28;19909;-76
2023/08/30 05:33:02;;;;;;;;;;;;;;;;;;2074198;28;19920;-76
2023/08/30 05:34:25;;;;;;;;;;;;;;;;;;2070948;28;20278;-74
2023/08/30 05:35:46;;;;;;;;;;;;;;;;;;2077263;28;20348;-74
2023/08/30 05:37:07;;;;;;;;;;;;;;;;;;2067905;28;19914;-74
2023/08/30 05:38:28;;;;;;;;;;;;;;;;;;2070526;28;19929;-73
2023/08/30 05:39:48;;;;;;;;;;;;;;;;;;2070150;28;19918;-74
2023/08/30 05:41:09;;;;;;;;;;;;;;;;;;2068701;28;19921;-74
2023/08/30 05:42:30;;;;;;;;;;;;;;;;;;2070551;28;20328;-74
2023/08/30 05:43:50;;;;;;;;;;;;;;;;;;2071326;28;19913;-75
2023/08/30 05:45:11;;;;;;;;;;;;;;;;;;2066731;28;19914;-75
2023/08/30 05:46:32;;;;;;;;;;;;;;;;;;2073135;28;20303;-74
2023/08/30 05:47:52;;;;;;;;;;;;;;;;;;2074897;28;19944;-74
2023/08/30 05:49:13;;;;;;;;;;;;;;;;;;2063393;28;19914;-74
2023/08/30 05:50:34;;;;;;;;;;;;;;;;;;2069838;28;19921;-74
2023/08/30 05:51:55;;;;;;;;;;;;;;;;;;2062539;28;20332;-74
2023/08/30 05:53:16;;;;;;;;;;;;;;;;;;2069637;28;19964;-75
2023/08/30 05:54:36;;;;;;;;;;;;;;;;;;2063952;28;19921;-74
2023/08/30 05:55:57;;;;;;;;;;;;;;;;;;2070871;28;19917;-74
2023/08/30 05:57:18;;;;;;;;;;;;;;;;;;2072669;28;19983;-74
2023/08/30 05:58:38;;;;;;;;;;;;;;;;;;2073672;28;19922;-74
2023/08/30 05:59:59;;;;;;;;;;;;;;;;;;2072320;28;19914;-74
2023/08/30 06:01:20;;;;;;;;;;;;;;;;;;2076687;28;19943;-74
2023/08/30 06:02:41;;;;;;;;;;;;;;;;;;2071679;28;19920;-75
2023/08/30 06:04:01;;;;;;;;;;;;;;;;;;2064601;28;19921;-75
2023/08/30 06:05:22;;;;;;;;;;;;;;;;;;2073311;28;20295;-75
2023/08/30 06:06:43;;;;;;;;;;;;;;;;;;2070870;28;19972;-76
2023/08/30 06:08:03;;;;;;;;;;;;;;;;;;2068404;28;20619;-76
2023/08/30 06:09:24;;;;;;;;;;;;;;;;;;2064699;28;19922;-76
2023/08/30 06:10:45;;;;;;;;;;;;;;;;;;2072404;28;19920;-76
2023/08/30 06:12:06;;;;;;;;;;;;;;;;;;2062931;28;19914;-76
2023/08/30 06:13:26;;;;;;;;;;;;;;;;;;2068972;28;19926;-76
2023/08/30 06:14:51;;;;;;;;;;;;;;;;;;2072143;28;20369;-77
2023/08/30 06:16:12;;;;;;;;;;;;;;;;;;2071636;28;19922;-77
2023/08/30 06:17:33;;;;;;;;;;;;;;;;;;2063675;28;20358;-75
2023/08/30 06:18:54;;;;;;;;;;;;;;;;;;2063153;28;19922;-75
2023/08/30 06:20:14;;;;;;;;;;;;;;;;;;2060309;28;20146;-75
2023/08/30 06:21:35;;;;;;;;;;;;;;;;;;2066207;28;20036;-75
2023/08/30 06:22:56;;;;;;;;;;;;;;;;;;2066314;28;19928;-75
2023/08/30 06:24:17;;;;;;;;;;;;;;;;;;2071189;28;20284;-74
2023/08/30 06:25:37;;;;;;;;;;;;;;;;;;2072287;28;20421;-74
2023/08/30 06:26:59;;;;;;;;;;;;;;;;;;2071358;28;19914;-75
2023/08/30 06:28:20;;;;;;;;;;;;;;;;;;2063785;28;19925;-75
2023/08/30 06:29:41;;;;;;;;;;;;;;;;;;2069384;28;19946;-75
2023/08/30 06:31:02;;;;;;;;;;;;;;;;;;2070153;28;19917;-75
2023/08/30 06:32:23;;;;;;;;;;;;;;;;;;2069267;28;19925;-75
2023/08/30 06:33:43;;;;;;;;;;;;;;;;;;2063097;28;20578;-74
2023/08/30 06:35:04;;;;;;;;;;;;;;;;;;2069877;28;19921;-75
2023/08/30 06:36:25;;;;;;;;;;;;;;;;;;2072105;28;19921;-74
2023/08/30 06:37:46;;;;;;;;;;;;;;;;;;2063447;28;19936;-74
2023/08/30 06:39:06;;;;;;;;;;;;;;;;;;2068322;28;19914;-75
2023/08/30 06:40:27;;;;;;;;;;;;;;;;;;2071974;28;20353;-75
2023/08/30 06:41:48;;;;;;;;;;;;;;;;;;2071485;28;19913;-75
2023/08/30 06:43:08;;;;;;;;;;;;;;;;;;2069974;28;19947;-75
2023/08/30 06:44:29;;;;;;;;;;;;;;;;;;2074735;28;20246;-75
2023/08/30 06:45:50;;;;;;;;;;;;;;;;;;2073550;28;19929;-75
2023/08/30 06:47:11;;;;;;;;;;;;;;;;;;2065269;28;19910;-75
2023/08/30 06:48:32;;;;;;;;;;;;;;;;;;2067545;28;19929;-76
2023/08/30 06:49:52;;;;;;;;;;;;;;;;;;2070578;28;20046;-75
2023/08/30 06:51:13;;;;;;;;;;;;;;;;;;2072332;28;20385;-75
2023/08/30 06:52:34;;;;;;;;;;;;;;;;;;2073130;28;20481;-76
2023/08/30 06:53:57;;;;;;;;;;;;;;;;;;2065891;28;19925;-75
2023/08/30 06:55:17;;;;;;;;;;;;;;;;;;2063377;28;19930;-76
2023/08/30 06:56:38;;;;;;;;;;;;;;;;;;2069174;28;20280;-75
2023/08/30 06:57:59;;;;;;;;;;;;;;;;;;2061919;28;19970;-76
2023/08/30 06:59:19;;;;;;;;;;;;;;;;;;2062100;28;20004;-76
2023/08/30 07:00:40;;;;;;;;;;;;;;;;;;2068818;28;19914;-75
2023/08/30 07:02:01;;;;;;;;;;;;;;;;;;2064255;28;19914;-76
2023/08/30 07:03:22;;;;;;;;;;;;;;;;;;2071009;28;19993;-75
2023/08/30 07:04:43;;;;;;;;;;;;;;;;;;2070079;28;19920;-75
2023/08/30 07:06:03;;;;;;;;;;;;;;;;;;2063435;28;20354;-76
2023/08/30 07:07:24;;;;;;;;;;;;;;;;;;2068954;28;19921;-76
2023/08/30 07:08:45;;;;;;;;;;;;;;;;;;2071019;28;20439;-76
2023/08/30 07:10:05;;;;;;;;;;;;;;;;;;2070018;28;20350;-75
2023/08/30 07:11:26;;;;;;;;;;;;;;;;;;2066115;28;19913;-75
2023/08/30 07:12:48;;;;;;;;;;;;;;;;;;2063757;28;19918;-76
2023/08/30 07:14:09;;;;;;;;;;;;;;;;;;2069904;28;19913;-76
2023/08/30 07:15:30;;;;;;;;;;;;;;;;;;2073423;28;20362;-76
2023/08/30 07:16:51;;;;;;;;;;;;;;;;;;2071627;28;19914;-76
2023/08/30 07:18:12;;;;;;;;;;;;;;;;;;2067116;28;19925;-75
2023/08/30 07:19:32;;;;;;;;;;;;;;;;;;2073422;28;19922;-75
2023/08/30 07:20:53;;;;;;;;;;;;;;;;;;2065386;28;19914;-74
2023/08/30 07:22:16;;;;;;;;;;;;;;;;;;2069627;28;19914;-75
2023/08/30 07:23:36;;;;;;;;;;;;;;;;;;2071645;28;19925;-74
2023/08/30 07:24:57;;;;;;;;;;;;;;;;;;2062023;28;19914;-75
2023/08/30 07:26:18;;;;;;;;;;;;;;;;;;2067354;28;19976;-75
2023/08/30 07:27:38;;;;;;;;;;;;;;;;;;2062688;28;19914;-76
2023/08/30 07:28:59;;;;;;;;;;;;;;;;;;2069337;28;20298;-75
2023/08/30 07:30:20;;;;;;;;;;;;;;;;;;2071625;28;19913;-74
2023/08/30 07:31:41;;;;;;;;;;;;;;;;;;2073250;28;19918;-74
2023/08/30 07:33:02;;;;;;;;;;;;;;;;;;2071358;28;20558;-74
2023/08/30 07:34:23;;;;;;;;;;;;;;;;;;2072634;28;19913;-74
2023/08/30 07:35:44;;;;;;;;;;;;;;;;;;2076524;28;19916;-74
2023/08/30 07:37:04;;;;;;;;;;;;;;;;;;2072960;28;19914;-74
2023/08/30 07:38:25;;;;;;;;;;;;;;;;;;2071277;28;20508;-74
2023/08/30 07:39:46;;;;;;;;;;;;;;;;;;2067483;28;19916;-73
2023/08/30 07:41:07;;;;;;;;;;;;;;;;;;2065075;28;20163;-74
2023/08/30 07:42:27;;;;;;;;;;;;;;;;;;2065907;28;19940;-75
2023/08/30 07:43:48;;;;;;;;;;;;;;;;;;2070425;28;19913;-75
2023/08/30 07:45:09;;;;;;;;;;;;;;;;;;2072768;28;19916;-75
2023/08/30 07:46:30;;;;;;;;;;;;;;;;;;2072823;28;19917;-74
2023/08/30 07:47:51;;;;;;;;;;;;;;;;;;2073400;28;19910;-74
2023/08/30 07:49:11;;;;;;;;;;;;;;;;;;2071232;28;20368;-75
2023/08/30 07:50:32;;;;;;;;;;;;;;;;;;2074311;28;19913;-74
2023/08/30 07:51:53;;;;;;;;;;;;;;;;;;2076196;28;20229;-74
2023/08/30 07:53:13;;;;;;;;;;;;;;;;;;2073348;28;19918;-76
2023/08/30 07:54:34;;;;;;;;;;;;;;;;;;2072641;28;19917;-74
2023/08/30 07:55:55;;;;;;;;;;;;;;;;;;2070778;28;19917;-74
2023/08/30 07:57:15;;;;;;;;;;;;;;;;;;2064211;28;19909;-74
2023/08/30 07:58:36;;;;;;;;;;;;;;;;;;2061021;28;19921;-74
2023/08/30 07:59:57;;;;;;;;;;;;;;;;;;2065170;28;19933;-75
2023/08/30 08:01:18;;;;;;;;;;;;;;;;;;2068403;28;19971;-74
2023/08/30 08:02:38;;;;;;;;;;;;;;;;;;2081396;28;19909;-73
2023/08/30 08:03:59;;;;;;;;;;;;;;;;;;2068534;28;19910;-74
2023/08/30 08:05:20;;;;;;;;;;;;;;;;;;2068759;28;19963;-74
2023/08/30 08:06:40;;;;;;;;;;;;;;;;;;2070948;28;19917;-75
2023/08/30 08:08:02;;;;;;;;;;;;;;;;;;2071620;28;19913;-74
2023/08/30 08:09:23;;;;;;;;;;;;;;;;;;2072699;28;19925;-74
2023/08/30 08:10:44;;;;;;;;;;;;;;;;;;2073183;28;19910;-73
2023/08/30 08:12:04;;;;;;;;;;;;;;;;;;2071650;28;19921;-75
2023/08/30 08:13:25;;;;;;;;;;;;;;;;;;2073323;28;20269;-74
2023/08/30 08:14:46;;;;;;;;;;;;;;;;;;2075805;28;19910;-74
2023/08/30 08:16:07;;;;;;;;;;;;;;;;;;2072971;28;19909;-73
2023/08/30 08:17:27;;;;;;;;;;;;;;;;;;2072766;28;20290;-74
2023/08/30 08:18:49;;;;;;;;;;;;;;;;;;2069681;28;19929;-74
2023/08/30 08:20:09;;;;;;;;;;;;;;;;;;2058770;28;19910;-74
2023/08/30 08:21:30;;;;;;;;;;;;;;;;;;2059482;28;19921;-73
2023/08/30 08:22:51;;;;;;;;;;;;;;;;;;2062996;28;19921;-74
2023/08/30 08:24:11;;;;;;;;;;;;;;;;;;2068841;28;19913;-73
2023/08/30 08:25:32;;;;;;;;;;;;;;;;;;2065824;28;19918;-74
2023/08/30 08:26:53;;;;;;;;;;;;;;;;;;2057783;28;20233;-74
2023/08/30 08:28:13;;;;;;;;;;;;;;;;;;2063900;28;19914;-74
2023/08/30 08:29:34;;;;;;;;;;;;;;;;;;2061040;28;19920;-73
2023/08/30 08:30:55;;;;;;;;;;;;;;;;;;2061417;28;20329;-74
2023/08/30 08:32:15;;;;;;;;;;;;;;;;;;2070744;28;19917;-74
2023/08/30 08:33:36;;;;;;;;;;;;;;;;;;2058327;28;19926;-74
2023/08/30 08:34:57;;;;;;;;;;;;;;;;;;2061557;28;19968;-74
2023/08/30 08:36:18;;;;;;;;;;;;;;;;;;2069154;28;19914;-74
2023/08/30 08:37:38;;;;;;;;;;;;;;;;;;2064396;28;19921;-76
2023/08/30 08:38:59;;;;;;;;;;;;;;;;;;2065510;28;19918;-77
2023/08/30 08:40:20;;;;;;;;;;;;;;;;;;2073951;28;19913;-76
2023/08/30 08:41:43;;;;;;;;;;;;;;;;;;2068250;28;19921;-76
2023/08/30 08:43:04;;;;;;;;;;;;;;;;;;2064306;28;20308;-76
2023/08/30 08:44:25;;;;;;;;;;;;;;;;;;2071420;28;19917;-77
2023/08/30 08:45:46;;;;;;;;;;;;;;;;;;2079011;28;19917;-76
2023/08/30 08:47:06;;;;;;;;;;;;;;;;;;2072889;28;20577;-76
2023/08/30 08:48:27;;;;;;;;;;;;;;;;;;2059683;28;19917;-77
2023/08/30 08:49:48;;;;;;;;;;;;;;;;;;2067542;28;19913;-77
2023/08/30 08:51:08;;;;;;;;;;;;;;;;;;2066638;28;19998;-76
2023/08/30 08:52:29;;;;;;;;;;;;;;;;;;2062764;28;19914;-76
2023/08/30 08:53:50;;;;;;;;;;;;;;;;;;2073771;28;19921;-77
2023/08/30 08:55:11;;;;;;;;;;;;;;;;;;2071434;28;19913;-77
2023/08/30 08:56:32;;;;;;;;;;;;;;;;;;2081345;28;19909;-76
2023/08/30 08:57:53;;;;;;;;;;;;;;;;;;2062774;28;20373;-77
2023/08/30 08:59:14;;;;;;;;;;;;;;;;;;2070477;28;19922;-77
2023/08/30 09:00:34;;;;;;;;;;;;;;;;;;2075768;28;19916;-77
2023/08/30 09:01:55;;;;;;;;;;;;;;;;;;2064676;28;20419;-77
2023/08/30 09:03:16;;;;;;;;;;;;;;;;;;2065825;28;19910;-77
2023/08/30 09:04:37;;;;;;;;;;;;;;;;;;2068258;28;20374;-79
2023/08/30 09:05:58;;;;;;;;;;;;;;;;;;2065727;28;19920;-77
2023/08/30 09:07:19;;;;;;;;;;;;;;;;;;2070527;28;19910;-78
2023/08/30 09:08:40;;;;;;;;;;;;;;;;;;2071088;28;20342;-76
2023/08/30 09:10:01;;;;;;;;;;;;;;;;;;2064814;28;19910;-78
2023/08/30 09:11:21;;;;;;;;;;;;;;;;;;2071735;28;19913;-77